createdAt,value
2019-04-29T00:01:21.446Z,9.02
2019-04-29T00:03:51.170Z,9.01
2019-04-29T00:06:21.831Z,9.03
2019-04-29T00:08:51.473Z,9.03
2019-04-29T00:11:21.380Z,9.04
2019-04-29T00:13:51.398Z,9.01
2019-04-29T00:16:29.771Z,9.01
2019-04-29T00:19:13.423Z,9.01
2019-04-29T00:21:43.148Z,9.01
2019-04-29T00:24:12.891Z,8.99
2019-04-29T00:26:42.623Z,9.03
2019-04-29T00:29:12.289Z,9.06
2019-04-29T00:31:41.948Z,9.05
2019-04-29T00:34:11.608Z,9.02
2019-04-29T00:36:54.020Z,9.04
2019-04-29T00:39:44.896Z,9.06
2019-04-29T00:42:36.414Z,9.08
2019-04-29T00:45:06.856Z,9.11
2019-04-29T00:47:36.520Z,9.14
2019-04-29T00:50:06.754Z,9.13
2019-04-29T00:52:36.401Z,9.11
2019-04-29T00:55:10.802Z,9.14
2019-04-29T00:57:40.455Z,9.10
2019-04-29T01:00:12.511Z,9.05
2019-04-29T01:02:42.199Z,9.05
2019-04-29T01:05:12.206Z,9.02
2019-04-29T01:07:41.861Z,9.05
2019-04-29T01:10:12.468Z,9.10
2019-04-29T01:12:42.359Z,9.14
2019-04-29T01:15:12.499Z,9.17
2019-04-29T01:17:42.221Z,9.19
2019-04-29T01:20:12.449Z,9.20
2019-04-29T01:22:42.882Z,9.21
2019-04-29T01:25:12.888Z,9.19
2019-04-29T01:27:49.308Z,9.14
2019-04-29T01:31:05.882Z,9.11
2019-04-29T01:33:35.594Z,9.05
2019-04-29T01:36:23.033Z,8.95
2019-04-29T01:38:54.513Z,8.92
2019-04-29T01:41:26.375Z,8.94
2019-04-29T01:43:59.450Z,8.96
2019-04-29T01:46:29.658Z,8.94
2019-04-29T01:48:59.456Z,8.86
2019-04-29T01:51:29.202Z,8.85
2019-04-29T01:53:58.921Z,8.84
2019-04-29T01:56:28.583Z,8.86
2019-04-29T01:58:58.301Z,8.82
2019-04-29T02:01:27.954Z,8.85
2019-04-29T02:03:58.680Z,8.92
2019-04-29T02:06:28.533Z,8.94
2019-04-29T02:08:58.187Z,8.97
2019-04-29T02:11:27.850Z,8.96
2019-04-29T02:13:57.512Z,8.95
2019-04-29T02:16:27.188Z,9.01
2019-04-29T02:18:56.851Z,9.01
2019-04-29T02:21:26.522Z,8.98
2019-04-29T02:24:05.366Z,8.98
2019-04-29T02:26:35.041Z,8.98
2019-04-29T02:29:04.832Z,9.01
2019-04-29T02:31:42.342Z,9.03
2019-04-29T02:34:12.073Z,9.06
2019-04-29T02:36:41.811Z,9.04
2019-04-29T02:39:29.440Z,9.04
2019-04-29T02:42:27.153Z,9.09
2019-04-29T02:45:00.129Z,9.10
2019-04-29T02:47:29.798Z,9.09
2019-04-29T02:49:59.447Z,9.06
2019-04-29T02:52:29.114Z,9.07
2019-04-29T02:55:01.182Z,9.05
2019-04-29T02:57:38.690Z,9.09
2019-04-29T03:00:19.674Z,9.04
2019-04-29T03:02:54.737Z,8.98
2019-04-29T03:05:27.155Z,8.98
2019-04-29T03:07:57.164Z,9.02
2019-04-29T03:10:26.830Z,9.01
2019-04-29T03:12:56.495Z,9.01
2019-04-29T03:15:31.237Z,9.00
2019-04-29T03:18:02.105Z,8.96
2019-04-29T03:20:37.158Z,8.97
2019-04-29T03:23:15.209Z,8.91
2019-04-29T03:25:44.928Z,8.90
2019-04-29T03:28:14.619Z,8.89
2019-04-29T03:30:44.297Z,8.91
2019-04-29T03:33:14.102Z,8.92
2019-04-29T03:35:43.854Z,8.92
2019-04-29T03:38:13.512Z,8.91
2019-04-29T03:40:44.285Z,8.90
2019-04-29T03:43:13.944Z,8.81
2019-04-29T03:45:43.585Z,8.76
2019-04-29T03:48:13.252Z,8.77
2019-04-29T03:50:42.916Z,8.81
2019-04-29T03:53:12.590Z,8.83
2019-04-29T03:55:42.231Z,8.76
2019-04-29T03:58:12.964Z,8.73
2019-04-29T04:00:44.491Z,8.75
2019-04-29T04:03:21.530Z,8.76
2019-04-29T04:06:08.891Z,8.78
2019-04-29T04:08:41.926Z,8.76
2019-04-29T04:11:11.568Z,8.77
2019-04-29T04:13:41.260Z,8.79
2019-04-29T04:16:15.473Z,8.77
2019-04-29T04:18:45.122Z,8.80
2019-04-29T04:21:14.770Z,8.87
2019-04-29T04:23:44.451Z,8.87
2019-04-29T04:26:14.109Z,8.94
2019-04-29T04:28:43.792Z,8.95
2019-04-29T04:31:13.478Z,8.95
2019-04-29T04:33:43.141Z,8.96
2019-04-29T04:36:12.845Z,8.98
2019-04-29T04:38:42.510Z,9.00
2019-04-29T04:41:12.163Z,9.01
2019-04-29T04:43:41.836Z,9.03
2019-04-29T04:46:11.497Z,9.11
2019-04-29T04:48:41.149Z,9.16
2019-04-29T04:51:10.818Z,9.24
2019-04-29T04:53:40.472Z,9.25
2019-04-29T04:56:10.211Z,9.18
2019-04-29T04:58:39.960Z,9.17
2019-04-29T05:01:09.605Z,9.20
2019-04-29T05:03:39.321Z,9.27
2019-04-29T05:06:09.173Z,9.26
2019-04-29T05:08:38.819Z,9.20
2019-04-29T05:11:08.501Z,9.17
2019-04-29T05:13:38.147Z,9.13
2019-04-29T05:16:07.823Z,9.14
2019-04-29T05:18:37.478Z,9.19
2019-04-29T05:21:07.149Z,9.25
2019-04-29T05:23:36.803Z,9.25
2019-04-29T05:26:06.483Z,9.22
2019-04-29T05:28:36.130Z,9.29
2019-04-29T05:31:05.882Z,9.32
2019-04-29T05:33:35.538Z,9.36
2019-04-29T05:36:17.247Z,9.38
2019-04-29T05:38:55.740Z,9.40
2019-04-29T05:41:30.217Z,9.44
2019-04-29T05:44:19.018Z,9.45
2019-04-29T05:46:57.052Z,9.51
2019-04-29T05:49:32.021Z,9.57
2019-04-29T05:52:21.157Z,9.47
2019-04-29T05:54:50.804Z,9.39
2019-04-29T05:57:25.215Z,9.36
2019-04-29T05:59:51.795Z,9.39
2019-04-29T06:02:23.575Z,9.37
2019-04-29T06:04:54.000Z,9.27
2019-04-29T06:07:26.781Z,9.25
2019-04-29T06:09:55.311Z,9.25
2019-04-29T06:12:24.971Z,9.30
2019-04-29T06:14:54.644Z,9.30
2019-04-29T06:17:24.317Z,9.30
2019-04-29T06:19:53.967Z,9.36
2019-04-29T06:22:23.639Z,9.37
2019-04-29T06:24:53.309Z,9.39
2019-04-29T06:27:22.982Z,9.43
2019-04-29T06:29:52.760Z,9.45
2019-04-29T06:32:24.825Z,9.47
2019-04-29T06:34:53.741Z,9.51
2019-04-29T06:37:23.404Z,9.55
2019-04-29T06:39:53.067Z,9.57
2019-04-29T06:42:22.727Z,9.55
2019-04-29T06:44:52.390Z,9.65
2019-04-29T06:47:22.062Z,9.78
2019-04-29T06:49:51.723Z,9.90
2019-04-29T06:52:21.399Z,10.00
2019-04-29T06:54:51.065Z,9.92
2019-04-29T06:57:20.735Z,9.89
2019-04-29T06:59:50.390Z,9.88
2019-04-29T07:02:20.140Z,9.80
2019-04-29T07:04:49.797Z,9.77
2019-04-29T07:07:19.479Z,9.80
2019-04-29T07:09:49.153Z,9.80
2019-04-29T07:12:18.835Z,9.80
2019-04-29T07:14:48.565Z,9.85
2019-04-29T07:17:18.247Z,9.81
2019-04-29T07:19:47.934Z,9.81
2019-04-29T07:22:20.879Z,9.79
2019-04-29T07:24:49.037Z,9.76
2019-04-29T07:27:18.757Z,9.69
2019-04-29T07:29:48.491Z,9.69
2019-04-29T07:32:18.170Z,9.76
2019-04-29T07:34:47.876Z,9.85
2019-04-29T07:37:17.563Z,9.87
2019-04-29T07:39:47.244Z,9.87
2019-04-29T07:42:16.976Z,9.84
2019-04-29T07:45:05.681Z,9.78
2019-04-29T07:47:36.337Z,9.82
2019-04-29T07:50:06.859Z,9.90
2019-04-29T07:52:36.559Z,9.97
2019-04-29T07:55:06.799Z,10.04
2019-04-29T07:57:36.499Z,10.16
2019-04-29T08:00:08.544Z,10.18
2019-04-29T08:02:38.251Z,10.16
2019-04-29T08:05:08.365Z,10.13
2019-04-29T08:07:39.087Z,10.13
2019-04-29T08:10:22.785Z,10.08
2019-04-29T08:12:43.234Z,9.97
2019-04-29T08:15:13.355Z,9.94
2019-04-29T08:17:43.019Z,9.92
2019-04-29T08:20:13.139Z,9.86
2019-04-29T08:22:42.849Z,9.85
2019-04-29T08:25:12.853Z,9.86
2019-04-29T08:27:43.867Z,9.90
2019-04-29T08:30:14.025Z,9.93
2019-04-29T08:32:43.752Z,9.90
2019-04-29T08:35:13.434Z,9.90
2019-04-29T08:37:43.103Z,9.96
2019-04-29T08:40:16.193Z,10.04
2019-04-29T08:42:50.772Z,10.10
2019-04-29T08:45:28.543Z,10.11
2019-04-29T08:47:58.695Z,10.15
2019-04-29T08:50:28.438Z,10.14
2019-04-29T08:52:58.099Z,10.15
2019-04-29T08:55:30.885Z,10.19
2019-04-29T08:57:59.211Z,10.20
2019-04-29T09:00:28.880Z,10.20
2019-04-29T09:02:58.555Z,10.24
2019-04-29T09:05:28.388Z,10.26
2019-04-29T09:07:59.119Z,10.23
2019-04-29T09:10:33.066Z,10.19
2019-04-29T09:13:01.321Z,10.18
2019-04-29T09:15:30.997Z,10.16
2019-04-29T09:18:00.675Z,10.20
2019-04-29T09:20:30.340Z,10.24
2019-04-29T09:23:03.351Z,10.23
2019-04-29T09:25:42.492Z,10.21
2019-04-29T09:28:17.978Z,10.22
2019-04-29T09:30:45.077Z,10.19
2019-04-29T09:33:14.844Z,10.26
2019-04-29T09:35:44.651Z,10.32
2019-04-29T09:38:14.330Z,10.38
2019-04-29T09:40:54.568Z,10.38
2019-04-29T09:43:39.726Z,10.42
2019-04-29T09:46:18.527Z,10.41
2019-04-29T09:48:47.953Z,10.43
2019-04-29T09:51:22.135Z,10.40
2019-04-29T09:53:49.163Z,10.45
2019-04-29T09:56:18.865Z,10.54
2019-04-29T09:58:50.328Z,10.57
2019-04-29T10:01:36.856Z,10.60
2019-04-29T10:04:16.792Z,10.65
2019-04-29T10:06:47.813Z,10.69
2019-04-29T10:09:17.705Z,10.73
2019-04-29T10:11:47.390Z,10.78
2019-04-29T10:14:17.046Z,10.87
2019-04-29T10:17:04.286Z,10.95
2019-04-29T10:19:55.752Z,10.99
2019-04-29T10:22:25.423Z,11.01
2019-04-29T10:24:55.092Z,10.93
2019-04-29T10:27:24.841Z,10.91
2019-04-29T10:29:57.114Z,10.91
2019-04-29T10:32:26.913Z,10.86
2019-04-29T10:34:56.568Z,10.87
2019-04-29T10:37:31.434Z,10.95
2019-04-29T10:40:11.250Z,11.05
2019-04-29T10:43:02.276Z,11.12
2019-04-29T10:45:43.747Z,11.26
2019-04-29T10:48:20.488Z,11.43
2019-04-29T10:50:52.624Z,11.58
2019-04-29T10:53:23.434Z,11.66
2019-04-29T10:55:53.510Z,11.76
2019-04-29T10:58:30.230Z,11.76
2019-04-29T11:02:01.322Z,11.82
2019-04-29T11:04:31.619Z,11.85
2019-04-29T11:07:13.564Z,11.93
2019-04-29T11:09:52.789Z,11.93
2019-04-29T11:12:22.425Z,12.03
2019-04-29T11:14:52.102Z,12.21
2019-04-29T11:17:24.248Z,12.24
2019-04-29T11:19:54.494Z,12.35
2019-04-29T11:22:28.449Z,12.41
2019-04-29T11:25:15.723Z,12.44
2019-04-29T11:27:49.628Z,12.49
2019-04-29T11:30:23.039Z,12.38
2019-04-29T11:33:10.620Z,12.43
2019-04-29T11:36:03.908Z,12.38
2019-04-29T11:38:33.415Z,12.37
2019-04-29T11:41:02.197Z,12.36
2019-04-29T11:43:32.055Z,12.47
2019-04-29T11:46:01.777Z,12.56
2019-04-29T11:48:31.620Z,12.64
2019-04-29T11:51:14.098Z,12.67
2019-04-29T11:53:43.771Z,12.71
2019-04-29T11:56:13.438Z,12.81
2019-04-29T11:58:49.074Z,12.98
2019-04-29T12:01:51.712Z,13.12
2019-04-29T12:04:32.823Z,13.21
2019-04-29T12:06:59.906Z,13.32
2019-04-29T12:09:30.564Z,13.53
2019-04-29T12:12:01.116Z,13.82
2019-04-29T12:14:48.100Z,14.18
2019-04-29T12:17:39.509Z,14.45
2019-04-29T12:20:17.621Z,14.92
2019-04-29T12:22:48.902Z,15.21
2019-04-29T12:25:18.883Z,15.52
2019-04-29T12:27:52.787Z,15.77
2019-04-29T12:30:22.008Z,16.28
2019-04-29T12:33:03.577Z,16.57
2019-04-29T12:35:52.041Z,16.69
2019-04-29T12:38:40.126Z,16.83
2019-04-29T12:41:31.600Z,16.95
2019-04-29T12:44:15.200Z,16.83
2019-04-29T12:46:51.430Z,16.74
2019-04-29T12:49:21.177Z,16.83
2019-04-29T12:51:50.852Z,17.02
2019-04-29T12:54:20.586Z,17.06
2019-04-29T12:56:50.348Z,17.20
2019-04-29T12:59:20.229Z,17.28
2019-04-29T13:02:05.319Z,17.34
2019-04-29T13:04:49.880Z,17.42
2019-04-29T13:07:34.458Z,17.49
2019-04-29T13:10:13.880Z,17.43
2019-04-29T13:12:44.531Z,17.31
2019-04-29T13:15:33.367Z,17.25
2019-04-29T13:18:14.311Z,17.24
2019-04-29T13:20:45.642Z,17.25
2019-04-29T13:23:19.529Z,17.21
2019-04-29T13:25:44.716Z,17.17
2019-04-29T13:28:29.229Z,17.17
2019-04-29T13:30:46.662Z,17.40
2019-04-29T13:33:17.010Z,17.66
2019-04-29T13:35:48.355Z,17.85
2019-04-29T13:38:18.393Z,17.89
2019-04-29T13:40:48.298Z,17.80
2019-04-29T13:43:20.748Z,17.66
2019-04-29T13:45:57.814Z,17.71
2019-04-29T13:48:55.826Z,17.78
2019-04-29T13:51:36.063Z,17.86
2019-04-29T13:53:55.379Z,17.92
2019-04-29T13:56:33.195Z,17.98
2019-04-29T13:58:57.954Z,17.93
2019-04-29T14:02:01.284Z,17.85
2019-04-29T14:04:27.594Z,17.76
2019-04-29T14:06:57.761Z,17.71
2019-04-29T14:09:27.619Z,17.77
2019-04-29T14:12:02.123Z,17.87
2019-04-29T14:14:28.683Z,18.00
2019-04-29T14:17:17.232Z,18.08
2019-04-29T14:19:45.056Z,18.20
2019-04-29T14:22:01.193Z,18.31
2019-04-29T14:24:30.862Z,18.49
2019-04-29T14:27:00.548Z,18.56
2019-04-29T14:29:30.445Z,18.60
2019-04-29T14:32:01.342Z,18.65
2019-04-29T14:34:38.050Z,18.81
2019-04-29T14:37:21.356Z,19.00
2019-04-29T14:39:39.099Z,19.03
2019-04-29T14:42:17.194Z,18.89
2019-04-29T14:45:06.872Z,18.79
2019-04-29T14:47:42.714Z,18.71
2019-04-29T14:50:15.542Z,18.66
2019-04-29T14:52:44.667Z,18.65
2019-04-29T14:55:20.082Z,18.54
2019-04-29T14:57:46.996Z,18.53
2019-04-29T15:00:27.210Z,18.60
2019-04-29T15:03:00.771Z,18.56
2019-04-29T15:05:28.313Z,18.44
2019-04-29T15:07:58.015Z,18.39
2019-04-29T15:10:31.249Z,18.32
2019-04-29T15:13:19.312Z,18.29
2019-04-29T15:16:03.743Z,18.24
2019-04-29T15:18:50.176Z,18.23
2019-04-29T15:21:33.762Z,18.31
2019-04-29T15:24:04.048Z,18.29
2019-04-29T15:26:33.737Z,18.25
2019-04-29T15:29:03.465Z,18.28
2019-04-29T15:31:33.190Z,18.30
2019-04-29T15:34:02.941Z,18.34
2019-04-29T15:36:34.822Z,18.37
2019-04-29T15:39:11.210Z,18.39
2019-04-29T15:41:38.801Z,18.38
2019-04-29T15:44:13.825Z,18.41
2019-04-29T15:46:46.204Z,18.31
2019-04-29T15:49:11.472Z,18.21
2019-04-29T15:51:44.179Z,18.15
2019-04-29T15:54:14.442Z,18.15
2019-04-29T15:56:44.099Z,18.15
2019-04-29T15:59:13.914Z,18.12
2019-04-29T16:01:44.109Z,18.10
2019-04-29T16:04:20.921Z,18.14
2019-04-29T16:06:58.773Z,18.12
2019-04-29T16:09:51.891Z,18.05
2019-04-29T16:12:22.839Z,17.95
2019-04-29T16:14:52.636Z,17.88
2019-04-29T16:17:22.337Z,17.79
2019-04-29T16:19:51.998Z,17.74
2019-04-29T16:22:22.234Z,17.65
2019-04-29T16:24:58.928Z,17.57
2019-04-29T16:27:23.512Z,17.45
2019-04-29T16:29:54.267Z,17.37
2019-04-29T16:32:32.641Z,17.29
2019-04-29T16:35:02.324Z,17.25
2019-04-29T16:37:33.367Z,17.18
2019-04-29T16:40:03.167Z,17.15
2019-04-29T16:42:43.146Z,17.09
2019-04-29T16:45:14.369Z,16.99
2019-04-29T16:47:47.459Z,16.89
2019-04-29T16:50:15.841Z,16.79
2019-04-29T16:52:45.774Z,16.70
2019-04-29T16:55:15.532Z,16.61
2019-04-29T16:57:46.159Z,16.50
2019-04-29T17:00:20.139Z,16.35
2019-04-29T17:02:50.088Z,16.22
2019-04-29T17:05:19.833Z,16.11
2019-04-29T17:07:49.485Z,16.03
2019-04-29T17:10:28.289Z,15.94
2019-04-29T17:12:57.951Z,15.85
2019-04-29T17:15:28.063Z,15.77
2019-04-29T17:17:57.728Z,15.70
2019-04-29T17:20:27.403Z,15.64
2019-04-29T17:22:57.231Z,15.57
2019-04-29T17:25:26.980Z,15.51
2019-04-29T17:28:24.291Z,15.43
2019-04-29T17:31:02.138Z,15.34
2019-04-29T17:33:57.076Z,15.26
2019-04-29T17:36:27.312Z,15.18
2019-04-29T17:38:57.028Z,15.13
2019-04-29T17:41:26.673Z,15.10
2019-04-29T17:44:20.030Z,15.04
2019-04-29T17:46:56.436Z,14.96
2019-04-29T17:49:35.318Z,14.86
2019-04-29T17:52:09.051Z,14.77
2019-04-29T17:54:41.286Z,14.68
2019-04-29T17:57:29.206Z,14.62
2019-04-29T18:00:26.077Z,14.53
2019-04-29T18:03:15.176Z,14.46
2019-04-29T18:06:05.474Z,14.38
2019-04-29T18:08:44.882Z,14.29
2019-04-29T18:11:15.053Z,14.21
2019-04-29T18:13:45.850Z,14.15
2019-04-29T18:16:23.789Z,14.08
2019-04-29T18:19:15.778Z,14.01
2019-04-29T18:22:08.818Z,13.94
2019-04-29T18:24:45.528Z,13.89
2019-04-29T18:27:17.334Z,13.84
2019-04-29T18:29:47.104Z,13.76
2019-04-29T18:32:16.780Z,13.67
2019-04-29T18:34:46.512Z,13.55
2019-04-29T18:37:16.782Z,13.45
2019-04-29T18:39:46.499Z,13.35
2019-04-29T18:42:16.251Z,13.24
2019-04-29T18:44:54.977Z,13.13
2019-04-29T18:47:22.657Z,13.04
2019-04-29T18:49:49.696Z,12.94
2019-04-29T18:52:25.902Z,12.88
2019-04-29T18:54:50.721Z,12.79
2019-04-29T18:57:30.003Z,12.69
2019-04-29T18:59:51.739Z,12.59
2019-04-29T19:02:21.416Z,12.49
2019-04-29T19:04:56.848Z,12.41
2019-04-29T19:08:13.937Z,12.33
2019-04-29T19:10:40.051Z,12.22
2019-04-29T19:13:12.999Z,12.07
2019-04-29T19:15:45.045Z,11.99
2019-04-29T19:18:17.423Z,11.89
2019-04-29T19:20:47.846Z,11.81
2019-04-29T19:23:22.536Z,11.70
2019-04-29T19:25:49.852Z,11.60
2019-04-29T19:28:29.354Z,11.51
2019-04-29T19:30:51.021Z,11.44
2019-04-29T19:33:20.710Z,11.36
2019-04-29T19:44:55.966Z,11.02
2019-04-29T19:47:55.688Z,10.91
2019-04-29T19:50:25.755Z,10.85
2019-04-29T19:52:55.668Z,10.77
2019-04-29T19:55:27.843Z,10.73
2019-04-29T19:57:57.556Z,10.70
2019-04-29T20:00:29.295Z,10.66
2019-04-29T20:02:59.624Z,10.62
2019-04-29T20:05:41.408Z,10.55
2019-04-29T20:08:19.254Z,10.48
2019-04-29T20:10:48.052Z,10.40
2019-04-29T20:13:15.821Z,10.33
2019-04-29T20:15:55.733Z,10.25
2019-04-29T20:18:40.392Z,10.17
2019-04-29T20:21:24.929Z,10.14
2019-04-29T20:23:46.754Z,10.11
2019-04-29T20:26:23.393Z,10.06
2019-04-29T20:28:51.133Z,10.01
2019-04-29T20:31:22.194Z,10.00
2019-04-29T20:33:51.365Z,9.99
2019-04-29T20:36:37.415Z,9.98
2019-04-29T20:38:53.378Z,10.00
2019-04-29T20:41:37.768Z,9.98
2019-04-29T20:43:56.202Z,9.96
2019-04-29T20:46:34.264Z,9.94
2019-04-29T20:48:59.624Z,9.89
2019-04-29T20:51:48.802Z,9.86
2019-04-29T20:54:15.827Z,9.80
2019-04-29T20:56:46.956Z,9.72
2019-04-29T20:59:15.748Z,9.64
2019-04-29T21:01:52.016Z,9.54
2019-04-29T21:04:31.281Z,9.47
2019-04-29T21:07:01.859Z,9.37
2019-04-29T21:09:30.035Z,9.32
2019-04-29T21:12:10.570Z,9.23
2019-04-29T21:14:46.463Z,9.16
2019-04-29T21:17:27.971Z,9.10
2019-04-29T21:19:47.243Z,9.03
2019-04-29T21:22:21.972Z,8.95
2019-04-29T21:24:49.431Z,8.88
2019-04-29T21:27:22.571Z,8.81
2019-04-29T21:29:53.990Z,8.74
2019-04-29T21:32:34.598Z,8.71
2019-04-29T21:37:32.203Z,8.66
2019-04-29T21:40:14.832Z,8.59
2019-04-29T21:43:13.672Z,8.53
2019-04-29T21:45:45.018Z,8.47
2019-04-29T21:48:12.823Z,8.42
2019-04-29T21:50:42.518Z,8.41
2019-04-29T21:53:12.208Z,8.38
2019-04-29T21:55:41.907Z,8.33
2019-04-29T21:58:11.684Z,8.27
2019-04-29T22:00:41.362Z,8.17
2019-04-29T22:03:12.779Z,8.07
2019-04-29T22:05:42.636Z,7.99
2019-04-29T22:08:16.147Z,7.91
2019-04-29T22:10:45.173Z,7.81
2019-04-29T22:13:15.037Z,7.75
2019-04-29T22:15:45.583Z,7.75
2019-04-29T22:18:17.819Z,7.72
2019-04-29T22:20:47.662Z,7.71
2019-04-29T22:23:18.575Z,7.72
2019-04-29T22:25:48.727Z,7.73
2019-04-29T22:28:19.865Z,7.73
2019-04-29T22:30:54.818Z,7.73
2019-04-29T22:33:22.637Z,7.73
2019-04-29T22:35:52.501Z,7.70
2019-04-29T22:38:22.263Z,7.63
2019-04-29T22:40:54.994Z,7.57
2019-04-29T22:43:44.537Z,7.51
2019-04-29T22:46:17.285Z,7.44
2019-04-29T22:48:48.707Z,7.34
2019-04-29T22:51:18.815Z,7.22
2019-04-29T22:53:49.112Z,7.13
2019-04-29T22:56:19.121Z,7.06
2019-04-29T22:58:48.903Z,7.00
2019-04-29T23:01:18.576Z,6.94
2019-04-29T23:03:48.454Z,6.89
2019-04-29T23:06:18.324Z,6.83
2019-04-29T23:08:48.087Z,6.75
2019-04-29T23:11:17.791Z,6.64
2019-04-29T23:13:49.082Z,6.50
2019-04-29T23:16:19.026Z,6.47
2019-04-29T23:18:48.764Z,6.47
2019-04-29T23:21:46.790Z,6.50
2019-04-29T23:24:51.340Z,6.51
2019-04-29T23:27:19.936Z,6.53
2019-04-29T23:29:49.777Z,6.52
2019-04-29T23:32:19.707Z,6.55
2019-04-29T23:34:49.531Z,6.52
2019-04-29T23:37:23.756Z,6.47
2019-04-29T23:39:52.117Z,6.45
2019-04-29T23:42:21.888Z,6.41
2019-04-29T23:44:52.510Z,6.38
2019-04-29T23:47:22.843Z,6.35
2019-04-29T23:49:53.021Z,6.31
2019-04-29T23:52:23.077Z,6.28
2019-04-29T23:54:52.823Z,6.28
2019-04-29T23:57:47.701Z,6.31
